sensor_id;sensor_type;location;lat;lon;timestamp;P1;durP1;ratioP1;P2;durP2;ratioP2
17201;SDS011;8717;53.588;10.176;2023-03-30T00:00:11;19.10;;;17.00;;
17201;SDS011;8717;53.588;10.176;2023-03-30T00:02:42;21.33;;;16.83;;
17201;SDS011;8717;53.588;10.176;2023-03-30T00:05:10;21.90;;;16.73;;
17201;SDS011;8717;53.588;10.176;2023-03-30T00:07:37;19.20;;;16.87;;
17201;SDS011;8717;53.588;10.176;2023-03-30T00:10:07;19.93;;;16.57;;
17201;SDS011;8717;53.588;10.176;2023-03-30T00:12:35;20.97;;;17.07;;
17201;SDS011;8717;53.588;10.176;2023-03-30T00:15:02;18.90;;;16.30;;
17201;SDS011;8717;53.588;10.176;2023-03-30T00:17:32;19.23;;;16.30;;
17201;SDS011;8717;53.588;10.176;2023-03-30T00:20:00;20.17;;;16.50;;
17201;SDS011;8717;53.588;10.176;2023-03-30T00:22:30;22.57;;;16.97;;
17201;SDS011;8717;53.588;10.176;2023-03-30T00:24:58;20.40;;;17.03;;
17201;SDS011;8717;53.588;10.176;2023-03-30T00:27:25;21.33;;;17.60;;
17201;SDS011;8717;53.588;10.176;2023-03-30T00:29:52;20.20;;;17.00;;
17201;SDS011;8717;53.588;10.176;2023-03-30T00:32:19;20.30;;;16.33;;
17201;SDS011;8717;53.588;10.176;2023-03-30T00:34:49;19.47;;;16.00;;
17201;SDS011;8717;53.588;10.176;2023-03-30T00:37:15;18.87;;;16.37;;
17201;SDS011;8717;53.588;10.176;2023-03-30T00:39:42;19.30;;;16.07;;
17201;SDS011;8717;53.588;10.176;2023-03-30T00:42:12;20.93;;;16.63;;
17201;SDS011;8717;53.588;10.176;2023-03-30T00:47:42;17.97;;;15.57;;
17201;SDS011;8717;53.588;10.176;2023-03-30T00:50:14;18.63;;;15.73;;
17201;SDS011;8717;53.588;10.176;2023-03-30T00:52:46;18.47;;;15.63;;
17201;SDS011;8717;53.588;10.176;2023-03-30T00:55:17;18.77;;;15.37;;
17201;SDS011;8717;53.588;10.176;2023-03-30T00:57:46;20.67;;;15.23;;
17201;SDS011;8717;53.588;10.176;2023-03-30T01:00:15;18.17;;;15.07;;
17201;SDS011;8717;53.588;10.176;2023-03-30T01:02:43;20.27;;;15.90;;
17201;SDS011;8717;53.588;10.176;2023-03-30T01:05:15;17.53;;;15.17;;
17201;SDS011;8717;53.588;10.176;2023-03-30T01:07:42;17.90;;;14.87;;
17201;SDS011;8717;53.588;10.176;2023-03-30T01:10:10;18.30;;;15.13;;
17201;SDS011;8717;53.588;10.176;2023-03-30T01:12:37;20.97;;;14.93;;
17201;SDS011;8717;53.588;10.176;2023-03-30T01:15:06;18.53;;;14.63;;
17201;SDS011;8717;53.588;10.176;2023-03-30T01:17:34;19.67;;;14.77;;
17201;SDS011;8717;53.588;10.176;2023-03-30T01:20:17;20.23;;;15.57;;
17201;SDS011;8717;53.588;10.176;2023-03-30T01:23:27;15.67;;;13.80;;
17201;SDS011;8717;53.588;10.176;2023-03-30T01:26:25;15.40;;;13.27;;
17201;SDS011;8717;53.588;10.176;2023-03-30T01:29:14;20.10;;;14.73;;
17201;SDS011;8717;53.588;10.176;2023-03-30T01:35:17;19.90;;;14.13;;
17201;SDS011;8717;53.588;10.176;2023-03-30T01:38:08;15.67;;;12.93;;
17201;SDS011;8717;53.588;10.176;2023-03-30T01:41:07;19.83;;;14.23;;
17201;SDS011;8717;53.588;10.176;2023-03-30T01:43:42;17.53;;;13.57;;
17201;SDS011;8717;53.588;10.176;2023-03-30T01:46:15;17.13;;;14.13;;
17201;SDS011;8717;53.588;10.176;2023-03-30T01:48:51;16.63;;;13.17;;
17201;SDS011;8717;53.588;10.176;2023-03-30T01:51:25;16.13;;;12.67;;
17201;SDS011;8717;53.588;10.176;2023-03-30T01:53:57;19.13;;;13.77;;
17201;SDS011;8717;53.588;10.176;2023-03-30T01:56:31;16.63;;;13.60;;
17201;SDS011;8717;53.588;10.176;2023-03-30T01:59:03;18.13;;;14.23;;
17201;SDS011;8717;53.588;10.176;2023-03-30T02:01:33;15.80;;;13.10;;
17201;SDS011;8717;53.588;10.176;2023-03-30T02:04:03;17.00;;;13.70;;
17201;SDS011;8717;53.588;10.176;2023-03-30T02:06:34;16.90;;;13.90;;
17201;SDS011;8717;53.588;10.176;2023-03-30T02:09:04;17.50;;;12.87;;
17201;SDS011;8717;53.588;10.176;2023-03-30T02:11:34;19.33;;;14.20;;
17201;SDS011;8717;53.588;10.176;2023-03-30T02:14:05;16.67;;;14.17;;
17201;SDS011;8717;53.588;10.176;2023-03-30T02:16:36;16.70;;;13.60;;
17201;SDS011;8717;53.588;10.176;2023-03-30T02:19:06;18.20;;;13.97;;
17201;SDS011;8717;53.588;10.176;2023-03-30T02:21:33;17.10;;;14.27;;
17201;SDS011;8717;53.588;10.176;2023-03-30T02:24:02;18.43;;;14.23;;
17201;SDS011;8717;53.588;10.176;2023-03-30T02:26:33;18.33;;;13.93;;
17201;SDS011;8717;53.588;10.176;2023-03-30T02:29:00;18.07;;;13.93;;
17201;SDS011;8717;53.588;10.176;2023-03-30T02:31:28;17.13;;;14.63;;
17201;SDS011;8717;53.588;10.176;2023-03-30T02:34:03;20.70;;;15.20;;
17201;SDS011;8717;53.588;10.176;2023-03-30T02:36:48;19.33;;;15.03;;
17201;SDS011;8717;53.588;10.176;2023-03-30T02:39:36;23.37;;;15.97;;
17201;SDS011;8717;53.588;10.176;2023-03-30T02:42:30;21.63;;;15.00;;
17201;SDS011;8717;53.588;10.176;2023-03-30T02:45:08;21.07;;;16.33;;
17201;SDS011;8717;53.588;10.176;2023-03-30T02:47:51;19.83;;;15.00;;
17201;SDS011;8717;53.588;10.176;2023-03-30T02:50:28;20.27;;;15.47;;
17201;SDS011;8717;53.588;10.176;2023-03-30T02:53:07;20.10;;;15.30;;
17201;SDS011;8717;53.588;10.176;2023-03-30T02:55:43;19.07;;;15.20;;
17201;SDS011;8717;53.588;10.176;2023-03-30T02:58:24;21.13;;;15.67;;
17201;SDS011;8717;53.588;10.176;2023-03-30T03:01:08;20.17;;;15.67;;
17201;SDS011;8717;53.588;10.176;2023-03-30T03:03:48;19.43;;;15.63;;
17201;SDS011;8717;53.588;10.176;2023-03-30T03:06:17;18.03;;;15.27;;
17201;SDS011;8717;53.588;10.176;2023-03-30T03:08:49;21.10;;;15.67;;
17201;SDS011;8717;53.588;10.176;2023-03-30T03:11:25;19.40;;;15.27;;
17201;SDS011;8717;53.588;10.176;2023-03-30T03:13:53;22.13;;;15.43;;
17201;SDS011;8717;53.588;10.176;2023-03-30T03:16:21;22.90;;;16.43;;
17201;SDS011;8717;53.588;10.176;2023-03-30T03:19:06;20.87;;;15.20;;
17201;SDS011;8717;53.588;10.176;2023-03-30T03:21:34;21.37;;;15.77;;
17201;SDS011;8717;53.588;10.176;2023-03-30T03:24:00;22.00;;;15.93;;
17201;SDS011;8717;53.588;10.176;2023-03-30T03:26:47;20.77;;;15.50;;
17201;SDS011;8717;53.588;10.176;2023-03-30T03:29:17;19.17;;;14.77;;
17201;SDS011;8717;53.588;10.176;2023-03-30T03:31:44;19.90;;;15.00;;
17201;SDS011;8717;53.588;10.176;2023-03-30T03:34:11;19.83;;;15.43;;
17201;SDS011;8717;53.588;10.176;2023-03-30T03:36:59;23.00;;;15.80;;
17201;SDS011;8717;53.588;10.176;2023-03-30T03:39:28;22.37;;;16.13;;
17201;SDS011;8717;53.588;10.176;2023-03-30T03:42:04;22.27;;;15.57;;
17201;SDS011;8717;53.588;10.176;2023-03-30T03:44:34;23.17;;;15.67;;
17201;SDS011;8717;53.588;10.176;2023-03-30T03:47:02;18.87;;;15.77;;
17201;SDS011;8717;53.588;10.176;2023-03-30T03:49:29;22.27;;;15.30;;
17201;SDS011;8717;53.588;10.176;2023-03-30T03:51:56;20.43;;;15.43;;
17201;SDS011;8717;53.588;10.176;2023-03-30T03:54:23;19.70;;;15.03;;
17201;SDS011;8717;53.588;10.176;2023-03-30T03:56:51;21.87;;;14.43;;
17201;SDS011;8717;53.588;10.176;2023-03-30T03:59:21;20.13;;;15.53;;
17201;SDS011;8717;53.588;10.176;2023-03-30T04:01:49;19.90;;;15.87;;
17201;SDS011;8717;53.588;10.176;2023-03-30T04:04:18;21.23;;;15.43;;
17201;SDS011;8717;53.588;10.176;2023-03-30T04:06:45;22.20;;;15.97;;
17201;SDS011;8717;53.588;10.176;2023-03-30T04:09:12;22.17;;;15.37;;
17201;SDS011;8717;53.588;10.176;2023-03-30T04:11:57;21.60;;;14.93;;
17201;SDS011;8717;53.588;10.176;2023-03-30T04:14:53;19.77;;;15.60;;
17201;SDS011;8717;53.588;10.176;2023-03-30T04:17:44;19.97;;;14.13;;
17201;SDS011;8717;53.588;10.176;2023-03-30T04:20:14;21.83;;;14.70;;
17201;SDS011;8717;53.588;10.176;2023-03-30T04:22:55;23.50;;;15.57;;
17201;SDS011;8717;53.588;10.176;2023-03-30T04:26:01;18.40;;;14.77;;
17201;SDS011;8717;53.588;10.176;2023-03-30T04:28:47;20.40;;;15.07;;
17201;SDS011;8717;53.588;10.176;2023-03-30T04:31:36;20.53;;;14.93;;
17201;SDS011;8717;53.588;10.176;2023-03-30T04:34:07;17.97;;;14.10;;
17201;SDS011;8717;53.588;10.176;2023-03-30T04:36:53;19.30;;;14.37;;
17201;SDS011;8717;53.588;10.176;2023-03-30T04:39:39;19.33;;;15.03;;
17201;SDS011;8717;53.588;10.176;2023-03-30T04:42:32;19.13;;;14.23;;
17201;SDS011;8717;53.588;10.176;2023-03-30T04:45:28;19.63;;;14.73;;
17201;SDS011;8717;53.588;10.176;2023-03-30T04:48:27;16.53;;;13.43;;
17201;SDS011;8717;53.588;10.176;2023-03-30T04:51:25;20.37;;;14.47;;
17201;SDS011;8717;53.588;10.176;2023-03-30T04:54:16;20.77;;;14.50;;
17201;SDS011;8717;53.588;10.176;2023-03-30T04:57:02;17.23;;;12.60;;
17201;SDS011;8717;53.588;10.176;2023-03-30T04:59:47;19.27;;;13.23;;
17201;SDS011;8717;53.588;10.176;2023-03-30T05:02:32;16.27;;;13.10;;
17201;SDS011;8717;53.588;10.176;2023-03-30T05:05:14;17.47;;;13.20;;
17201;SDS011;8717;53.588;10.176;2023-03-30T05:08:15;15.37;;;12.70;;
17201;SDS011;8717;53.588;10.176;2023-03-30T05:11:00;16.97;;;12.53;;
17201;SDS011;8717;53.588;10.176;2023-03-30T05:13:49;17.40;;;12.93;;
17201;SDS011;8717;53.588;10.176;2023-03-30T05:16:28;16.93;;;13.43;;
17201;SDS011;8717;53.588;10.176;2023-03-30T05:19:24;36.77;;;24.03;;
17201;SDS011;8717;53.588;10.176;2023-03-30T05:22:20;22.50;;;17.20;;
17201;SDS011;8717;53.588;10.176;2023-03-30T05:25:05;18.57;;;13.33;;
17201;SDS011;8717;53.588;10.176;2023-03-30T05:28:02;19.57;;;14.03;;
17201;SDS011;8717;53.588;10.176;2023-03-30T05:31:07;14.70;;;12.53;;
17201;SDS011;8717;53.588;10.176;2023-03-30T05:33:53;15.03;;;11.43;;
17201;SDS011;8717;53.588;10.176;2023-03-30T05:36:43;14.73;;;11.93;;
17201;SDS011;8717;53.588;10.176;2023-03-30T05:39:28;13.83;;;11.03;;
17201;SDS011;8717;53.588;10.176;2023-03-30T05:42:03;16.37;;;11.13;;
17201;SDS011;8717;53.588;10.176;2023-03-30T05:44:38;13.73;;;10.63;;
17201;SDS011;8717;53.588;10.176;2023-03-30T05:47:28;13.40;;;10.57;;
17201;SDS011;8717;53.588;10.176;2023-03-30T05:49:55;16.53;;;10.57;;
17201;SDS011;8717;53.588;10.176;2023-03-30T05:52:31;14.80;;;10.90;;
17201;SDS011;8717;53.588;10.176;2023-03-30T05:55:09;13.13;;;9.60;;
17201;SDS011;8717;53.588;10.176;2023-03-30T05:57:38;14.60;;;10.27;;
17201;SDS011;8717;53.588;10.176;2023-03-30T06:00:24;15.97;;;10.13;;
17201;SDS011;8717;53.588;10.176;2023-03-30T06:03:01;13.03;;;9.83;;
17201;SDS011;8717;53.588;10.176;2023-03-30T06:05:30;14.30;;;10.50;;
17201;SDS011;8717;53.588;10.176;2023-03-30T06:07:58;13.23;;;10.27;;
17201;SDS011;8717;53.588;10.176;2023-03-30T06:10:25;13.57;;;9.67;;
17201;SDS011;8717;53.588;10.176;2023-03-30T06:12:54;12.23;;;9.60;;
17201;SDS011;8717;53.588;10.176;2023-03-30T06:15:50;12.93;;;9.37;;
17201;SDS011;8717;53.588;10.176;2023-03-30T06:18:22;13.53;;;10.23;;
17201;SDS011;8717;53.588;10.176;2023-03-30T06:20:57;14.50;;;10.87;;
17201;SDS011;8717;53.588;10.176;2023-03-30T06:23:26;13.43;;;9.90;;
17201;SDS011;8717;53.588;10.176;2023-03-30T06:25:57;13.63;;;10.33;;
17201;SDS011;8717;53.588;10.176;2023-03-30T06:28:30;13.37;;;10.33;;
17201;SDS011;8717;53.588;10.176;2023-03-30T06:30:57;12.63;;;10.30;;
17201;SDS011;8717;53.588;10.176;2023-03-30T06:33:25;14.60;;;10.43;;
17201;SDS011;8717;53.588;10.176;2023-03-30T06:35:58;13.43;;;10.83;;
17201;SDS011;8717;53.588;10.176;2023-03-30T06:38:26;18.53;;;10.30;;
17201;SDS011;8717;53.588;10.176;2023-03-30T06:40:54;13.33;;;9.90;;
17201;SDS011;8717;53.588;10.176;2023-03-30T06:43:23;12.47;;;9.57;;
17201;SDS011;8717;53.588;10.176;2023-03-30T06:46:27;13.93;;;10.07;;
17201;SDS011;8717;53.588;10.176;2023-03-30T06:48:54;14.03;;;9.53;;
17201;SDS011;8717;53.588;10.176;2023-03-30T06:51:39;14.20;;;9.87;;
17201;SDS011;8717;53.588;10.176;2023-03-30T06:54:06;15.20;;;9.70;;
17201;SDS011;8717;53.588;10.176;2023-03-30T06:56:35;12.43;;;9.57;;
17201;SDS011;8717;53.588;10.176;2023-03-30T06:59:13;14.27;;;9.57;;
17201;SDS011;8717;53.588;10.176;2023-03-30T07:02:02;12.33;;;8.77;;
17201;SDS011;8717;53.588;10.176;2023-03-30T07:04:47;11.20;;;8.67;;
17201;SDS011;8717;53.588;10.176;2023-03-30T07:07:36;11.87;;;8.73;;
17201;SDS011;8717;53.588;10.176;2023-03-30T07:10:06;10.20;;;8.13;;
17201;SDS011;8717;53.588;10.176;2023-03-30T07:12:35;9.87;;;7.77;;
17201;SDS011;8717;53.588;10.176;2023-03-30T07:15:02;11.27;;;8.03;;
17201;SDS011;8717;53.588;10.176;2023-03-30T07:17:30;10.97;;;8.23;;
17201;SDS011;8717;53.588;10.176;2023-03-30T07:19:57;13.20;;;8.43;;
17201;SDS011;8717;53.588;10.176;2023-03-30T07:22:23;12.33;;;7.33;;
17201;SDS011;8717;53.588;10.176;2023-03-30T07:24:50;9.43;;;6.90;;
17201;SDS011;8717;53.588;10.176;2023-03-30T07:27:19;10.83;;;7.00;;
17201;SDS011;8717;53.588;10.176;2023-03-30T07:29:49;11.17;;;6.87;;
17201;SDS011;8717;53.588;10.176;2023-03-30T07:32:16;11.37;;;6.83;;
17201;SDS011;8717;53.588;10.176;2023-03-30T07:34:44;9.83;;;6.43;;
17201;SDS011;8717;53.588;10.176;2023-03-30T07:37:13;9.03;;;6.13;;
17201;SDS011;8717;53.588;10.176;2023-03-30T07:39:40;9.63;;;6.10;;
17201;SDS011;8717;53.588;10.176;2023-03-30T07:42:09;7.43;;;6.17;;
17201;SDS011;8717;53.588;10.176;2023-03-30T07:44:36;11.57;;;6.90;;
17201;SDS011;8717;53.588;10.176;2023-03-30T07:47:06;9.13;;;6.33;;
17201;SDS011;8717;53.588;10.176;2023-03-30T07:49:35;9.93;;;5.73;;
17201;SDS011;8717;53.588;10.176;2023-03-30T07:52:03;10.60;;;6.33;;
17201;SDS011;8717;53.588;10.176;2023-03-30T07:54:39;11.03;;;5.80;;
17201;SDS011;8717;53.588;10.176;2023-03-30T07:57:15;9.20;;;5.80;;
17201;SDS011;8717;53.588;10.176;2023-03-30T07:59:42;9.73;;;5.30;;
17201;SDS011;8717;53.588;10.176;2023-03-30T08:02:18;9.60;;;5.70;;
17201;SDS011;8717;53.588;10.176;2023-03-30T08:04:49;10.83;;;5.67;;
17201;SDS011;8717;53.588;10.176;2023-03-30T08:07:24;8.07;;;5.40;;
17201;SDS011;8717;53.588;10.176;2023-03-30T08:09:58;11.10;;;5.60;;
17201;SDS011;8717;53.588;10.176;2023-03-30T08:12:28;11.70;;;5.13;;
17201;SDS011;8717;53.588;10.176;2023-03-30T08:14:54;8.77;;;5.00;;
17201;SDS011;8717;53.588;10.176;2023-03-30T08:17:21;9.43;;;5.50;;
17201;SDS011;8717;53.588;10.176;2023-03-30T08:19:48;7.13;;;4.83;;
17201;SDS011;8717;53.588;10.176;2023-03-30T08:22:14;9.23;;;5.60;;
17201;SDS011;8717;53.588;10.176;2023-03-30T08:24:42;6.87;;;5.57;;
17201;SDS011;8717;53.588;10.176;2023-03-30T08:27:09;8.03;;;5.30;;
17201;SDS011;8717;53.588;10.176;2023-03-30T08:29:36;9.60;;;4.70;;
17201;SDS011;8717;53.588;10.176;2023-03-30T08:32:02;9.43;;;5.13;;
17201;SDS011;8717;53.588;10.176;2023-03-30T08:34:29;9.13;;;4.90;;
17201;SDS011;8717;53.588;10.176;2023-03-30T08:37:05;7.60;;;4.67;;
17201;SDS011;8717;53.588;10.176;2023-03-30T08:39:49;8.77;;;5.17;;
17201;SDS011;8717;53.588;10.176;2023-03-30T08:45:06;9.90;;;4.97;;
17201;SDS011;8717;53.588;10.176;2023-03-30T08:47:35;6.53;;;4.43;;
17201;SDS011;8717;53.588;10.176;2023-03-30T08:50:06;8.83;;;4.60;;
17201;SDS011;8717;53.588;10.176;2023-03-30T08:52:37;7.70;;;4.37;;
17201;SDS011;8717;53.588;10.176;2023-03-30T08:55:08;9.27;;;4.23;;
17201;SDS011;8717;53.588;10.176;2023-03-30T08:57:46;7.87;;;3.83;;
17201;SDS011;8717;53.588;10.176;2023-03-30T09:00:24;5.87;;;3.50;;
17201;SDS011;8717;53.588;10.176;2023-03-30T09:03:09;4.80;;;3.30;;
17201;SDS011;8717;53.588;10.176;2023-03-30T09:05:57;6.97;;;3.30;;
17201;SDS011;8717;53.588;10.176;2023-03-30T09:08:31;8.43;;;3.40;;
17201;SDS011;8717;53.588;10.176;2023-03-30T09:11:00;7.37;;;3.47;;
17201;SDS011;8717;53.588;10.176;2023-03-30T09:13:31;7.73;;;2.87;;
17201;SDS011;8717;53.588;10.176;2023-03-30T09:16:02;5.27;;;2.73;;
17201;SDS011;8717;53.588;10.176;2023-03-30T09:18:41;9.30;;;3.40;;
17201;SDS011;8717;53.588;10.176;2023-03-30T09:21:10;5.57;;;3.47;;
17201;SDS011;8717;53.588;10.176;2023-03-30T09:23:38;10.33;;;3.60;;
17201;SDS011;8717;53.588;10.176;2023-03-30T09:26:13;6.90;;;3.67;;
17201;SDS011;8717;53.588;10.176;2023-03-30T09:28:47;6.70;;;3.37;;
17201;SDS011;8717;53.588;10.176;2023-03-30T09:31:20;8.17;;;3.77;;
17201;SDS011;8717;53.588;10.176;2023-03-30T09:33:52;7.10;;;3.47;;
17201;SDS011;8717;53.588;10.176;2023-03-30T09:36:25;7.33;;;3.57;;
17201;SDS011;8717;53.588;10.176;2023-03-30T09:38:57;8.47;;;3.30;;
17201;SDS011;8717;53.588;10.176;2023-03-30T09:41:34;6.47;;;3.47;;
17201;SDS011;8717;53.588;10.176;2023-03-30T09:44:16;5.33;;;3.33;;
17201;SDS011;8717;53.588;10.176;2023-03-30T09:46:47;10.37;;;3.80;;
17201;SDS011;8717;53.588;10.176;2023-03-30T09:49:15;5.53;;;3.73;;
17201;SDS011;8717;53.588;10.176;2023-03-30T09:51:51;6.50;;;3.40;;
17201;SDS011;8717;53.588;10.176;2023-03-30T09:54:20;7.10;;;3.97;;
17201;SDS011;8717;53.588;10.176;2023-03-30T09:56:48;7.33;;;3.70;;
17201;SDS011;8717;53.588;10.176;2023-03-30T09:59:26;7.13;;;3.27;;
17201;SDS011;8717;53.588;10.176;2023-03-30T10:05:02;7.47;;;3.40;;
17201;SDS011;8717;53.588;10.176;2023-03-30T10:07:42;9.83;;;3.70;;
17201;SDS011;8717;53.588;10.176;2023-03-30T10:10:13;6.53;;;3.43;;
17201;SDS011;8717;53.588;10.176;2023-03-30T10:12:43;5.73;;;3.70;;
17201;SDS011;8717;53.588;10.176;2023-03-30T10:15:14;7.37;;;3.63;;
17201;SDS011;8717;53.588;10.176;2023-03-30T10:17:51;7.90;;;3.80;;
17201;SDS011;8717;53.588;10.176;2023-03-30T10:20:23;5.37;;;3.47;;
17201;SDS011;8717;53.588;10.176;2023-03-30T10:22:59;5.53;;;3.10;;
17201;SDS011;8717;53.588;10.176;2023-03-30T10:25:31;6.40;;;3.40;;
17201;SDS011;8717;53.588;10.176;2023-03-30T10:28:03;6.30;;;3.20;;
17201;SDS011;8717;53.588;10.176;2023-03-30T10:30:30;7.50;;;3.50;;
17201;SDS011;8717;53.588;10.176;2023-03-30T10:32:59;6.27;;;3.47;;
17201;SDS011;8717;53.588;10.176;2023-03-30T10:35:30;5.27;;;3.10;;
17201;SDS011;8717;53.588;10.176;2023-03-30T10:37:59;5.47;;;3.13;;
17201;SDS011;8717;53.588;10.176;2023-03-30T10:40:30;6.87;;;3.10;;
17201;SDS011;8717;53.588;10.176;2023-03-30T10:43:00;6.80;;;2.80;;
17201;SDS011;8717;53.588;10.176;2023-03-30T10:45:31;4.20;;;2.53;;
17201;SDS011;8717;53.588;10.176;2023-03-30T10:48:12;7.00;;;2.80;;
17201;SDS011;8717;53.588;10.176;2023-03-30T10:50:54;6.80;;;2.80;;
17201;SDS011;8717;53.588;10.176;2023-03-30T10:53:38;6.03;;;2.70;;
17201;SDS011;8717;53.588;10.176;2023-03-30T10:56:14;8.03;;;2.93;;
17201;SDS011;8717;53.588;10.176;2023-03-30T10:59:01;6.23;;;2.53;;
17201;SDS011;8717;53.588;10.176;2023-03-30T11:01:40;7.37;;;2.77;;
17201;SDS011;8717;53.588;10.176;2023-03-30T11:04:17;4.87;;;2.40;;
17201;SDS011;8717;53.588;10.176;2023-03-30T11:06:51;4.50;;;2.27;;
17201;SDS011;8717;53.588;10.176;2023-03-30T11:09:20;4.00;;;2.10;;
17201;SDS011;8717;53.588;10.176;2023-03-30T11:11:53;8.77;;;2.70;;
17201;SDS011;8717;53.588;10.176;2023-03-30T11:14:26;6.20;;;2.10;;
17201;SDS011;8717;53.588;10.176;2023-03-30T11:17:00;3.80;;;2.10;;
17201;SDS011;8717;53.588;10.176;2023-03-30T11:19:33;7.73;;;2.33;;
17201;SDS011;8717;53.588;10.176;2023-03-30T11:22:06;5.33;;;2.50;;
17201;SDS011;8717;53.588;10.176;2023-03-30T11:24:42;3.83;;;1.80;;
17201;SDS011;8717;53.588;10.176;2023-03-30T11:27:13;4.33;;;1.80;;
17201;SDS011;8717;53.588;10.176;2023-03-30T11:29:47;5.47;;;2.00;;
17201;SDS011;8717;53.588;10.176;2023-03-30T11:32:19;5.40;;;2.03;;
17201;SDS011;8717;53.588;10.176;2023-03-30T11:34:57;5.07;;;1.90;;
17201;SDS011;8717;53.588;10.176;2023-03-30T11:37:31;3.80;;;1.87;;
17201;SDS011;8717;53.588;10.176;2023-03-30T11:40:02;4.27;;;2.10;;
17201;SDS011;8717;53.588;10.176;2023-03-30T11:42:38;5.23;;;2.00;;
17201;SDS011;8717;53.588;10.176;2023-03-30T11:45:15;4.23;;;1.83;;
17201;SDS011;8717;53.588;10.176;2023-03-30T11:47:51;4.53;;;1.60;;
17201;SDS011;8717;53.588;10.176;2023-03-30T11:50:30;7.13;;;1.60;;
17201;SDS011;8717;53.588;10.176;2023-03-30T11:53:09;4.23;;;1.60;;
17201;SDS011;8717;53.588;10.176;2023-03-30T11:55:55;2.53;;;1.40;;
17201;SDS011;8717;53.588;10.176;2023-03-30T11:58:33;4.13;;;1.23;;
17201;SDS011;8717;53.588;10.176;2023-03-30T12:01:25;3.77;;;1.43;;
17201;SDS011;8717;53.588;10.176;2023-03-30T12:04:02;3.77;;;1.30;;
17201;SDS011;8717;53.588;10.176;2023-03-30T12:06:32;3.13;;;1.00;;
17201;SDS011;8717;53.588;10.176;2023-03-30T12:09:13;4.13;;;1.27;;
17201;SDS011;8717;53.588;10.176;2023-03-30T12:11:49;6.73;;;1.67;;
17201;SDS011;8717;53.588;10.176;2023-03-30T12:17:22;5.00;;;1.47;;
17201;SDS011;8717;53.588;10.176;2023-03-30T12:19:58;4.97;;;1.37;;
17201;SDS011;8717;53.588;10.176;2023-03-30T12:22:32;7.13;;;2.10;;
17201;SDS011;8717;53.588;10.176;2023-03-30T12:25:05;3.73;;;1.47;;
17201;SDS011;8717;53.588;10.176;2023-03-30T12:27:56;3.27;;;1.40;;
17201;SDS011;8717;53.588;10.176;2023-03-30T12:30:28;6.73;;;2.00;;
17201;SDS011;8717;53.588;10.176;2023-03-30T12:33:01;3.33;;;1.37;;
17201;SDS011;8717;53.588;10.176;2023-03-30T12:35:45;10.03;;;2.40;;
17201;SDS011;8717;53.588;10.176;2023-03-30T12:38:19;6.07;;;1.80;;
17201;SDS011;8717;53.588;10.176;2023-03-30T12:40:52;6.30;;;2.00;;
17201;SDS011;8717;53.588;10.176;2023-03-30T12:43:28;6.73;;;1.90;;
17201;SDS011;8717;53.588;10.176;2023-03-30T12:46:03;9.80;;;2.23;;
17201;SDS011;8717;53.588;10.176;2023-03-30T12:48:40;7.53;;;2.10;;
17201;SDS011;8717;53.588;10.176;2023-03-30T12:51:20;10.10;;;2.73;;
17201;SDS011;8717;53.588;10.176;2023-03-30T12:56:50;7.80;;;2.33;;
17201;SDS011;8717;53.588;10.176;2023-03-30T12:59:32;12.80;;;2.40;;
17201;SDS011;8717;53.588;10.176;2023-03-30T13:02:23;6.00;;;2.63;;
17201;SDS011;8717;53.588;10.176;2023-03-30T13:05:18;9.77;;;2.60;;
17201;SDS011;8717;53.588;10.176;2023-03-30T13:07:50;8.63;;;2.47;;
17201;SDS011;8717;53.588;10.176;2023-03-30T13:10:34;9.43;;;2.47;;
17201;SDS011;8717;53.588;10.176;2023-03-30T13:13:04;10.47;;;2.50;;
17201;SDS011;8717;53.588;10.176;2023-03-30T13:15:41;10.70;;;2.90;;
17201;SDS011;8717;53.588;10.176;2023-03-30T13:18:22;9.93;;;3.03;;
17201;SDS011;8717;53.588;10.176;2023-03-30T13:21:14;8.03;;;2.23;;
17201;SDS011;8717;53.588;10.176;2023-03-30T13:23:43;6.87;;;2.37;;
17201;SDS011;8717;53.588;10.176;2023-03-30T13:26:23;7.17;;;2.53;;
17201;SDS011;8717;53.588;10.176;2023-03-30T13:28:58;7.03;;;2.10;;
17201;SDS011;8717;53.588;10.176;2023-03-30T13:31:35;10.33;;;3.27;;
17201;SDS011;8717;53.588;10.176;2023-03-30T13:34:22;9.50;;;2.47;;
17201;SDS011;8717;53.588;10.176;2023-03-30T13:37:06;9.17;;;2.70;;
17201;SDS011;8717;53.588;10.176;2023-03-30T13:39:45;9.57;;;2.53;;
17201;SDS011;8717;53.588;10.176;2023-03-30T13:42:22;10.87;;;3.20;;
17201;SDS011;8717;53.588;10.176;2023-03-30T13:45:01;9.73;;;2.67;;
17201;SDS011;8717;53.588;10.176;2023-03-30T13:47:40;7.40;;;2.37;;
17201;SDS011;8717;53.588;10.176;2023-03-30T13:50:19;9.67;;;2.83;;
17201;SDS011;8717;53.588;10.176;2023-03-30T13:52:51;8.17;;;2.57;;
17201;SDS011;8717;53.588;10.176;2023-03-30T13:55:21;10.93;;;2.40;;
17201;SDS011;8717;53.588;10.176;2023-03-30T13:57:53;5.93;;;1.93;;
17201;SDS011;8717;53.588;10.176;2023-03-30T14:00:26;8.53;;;2.37;;
17201;SDS011;8717;53.588;10.176;2023-03-30T14:05:57;8.57;;;2.47;;
17201;SDS011;8717;53.588;10.176;2023-03-30T14:08:29;7.27;;;2.43;;
17201;SDS011;8717;53.588;10.176;2023-03-30T14:10:59;7.47;;;2.60;;
17201;SDS011;8717;53.588;10.176;2023-03-30T14:13:28;7.20;;;2.17;;
17201;SDS011;8717;53.588;10.176;2023-03-30T14:15:55;9.03;;;2.20;;
17201;SDS011;8717;53.588;10.176;2023-03-30T14:18:23;7.03;;;2.00;;
17201;SDS011;8717;53.588;10.176;2023-03-30T14:20:50;6.10;;;1.73;;
17201;SDS011;8717;53.588;10.176;2023-03-30T14:23:22;5.43;;;1.87;;
17201;SDS011;8717;53.588;10.176;2023-03-30T14:25:58;5.83;;;1.87;;
17201;SDS011;8717;53.588;10.176;2023-03-30T14:28:27;6.47;;;2.00;;
17201;SDS011;8717;53.588;10.176;2023-03-30T14:30:57;4.47;;;1.57;;
17201;SDS011;8717;53.588;10.176;2023-03-30T14:33:28;5.27;;;1.40;;
17201;SDS011;8717;53.588;10.176;2023-03-30T14:35:57;5.93;;;1.57;;
17201;SDS011;8717;53.588;10.176;2023-03-30T14:38:25;6.50;;;1.70;;
17201;SDS011;8717;53.588;10.176;2023-03-30T14:40:55;7.30;;;1.90;;
17201;SDS011;8717;53.588;10.176;2023-03-30T14:43:24;7.13;;;1.50;;
17201;SDS011;8717;53.588;10.176;2023-03-30T14:45:54;4.17;;;1.20;;
17201;SDS011;8717;53.588;10.176;2023-03-30T14:48:26;4.47;;;1.50;;
17201;SDS011;8717;53.588;10.176;2023-03-30T14:50:55;4.63;;;1.47;;
17201;SDS011;8717;53.588;10.176;2023-03-30T14:53:22;5.73;;;1.47;;
17201;SDS011;8717;53.588;10.176;2023-03-30T14:55:51;7.40;;;2.10;;
17201;SDS011;8717;53.588;10.176;2023-03-30T14:58:22;7.30;;;1.70;;
17201;SDS011;8717;53.588;10.176;2023-03-30T15:00:52;6.20;;;1.80;;
17201;SDS011;8717;53.588;10.176;2023-03-30T15:03:22;6.23;;;1.77;;
17201;SDS011;8717;53.588;10.176;2023-03-30T15:05:51;5.13;;;1.60;;
17201;SDS011;8717;53.588;10.176;2023-03-30T15:08:19;8.17;;;1.57;;
17201;SDS011;8717;53.588;10.176;2023-03-30T15:10:48;5.63;;;1.87;;
17201;SDS011;8717;53.588;10.176;2023-03-30T15:13:19;6.60;;;1.80;;
17201;SDS011;8717;53.588;10.176;2023-03-30T15:15:51;4.47;;;1.57;;
17201;SDS011;8717;53.588;10.176;2023-03-30T15:18:20;6.47;;;2.00;;
17201;SDS011;8717;53.588;10.176;2023-03-30T15:20:50;10.40;;;1.80;;
17201;SDS011;8717;53.588;10.176;2023-03-30T15:23:17;7.53;;;2.00;;
17201;SDS011;8717;53.588;10.176;2023-03-30T15:25:45;7.80;;;1.97;;
17201;SDS011;8717;53.588;10.176;2023-03-30T15:28:13;5.20;;;1.80;;
17201;SDS011;8717;53.588;10.176;2023-03-30T15:30:45;7.30;;;1.80;;
17201;SDS011;8717;53.588;10.176;2023-03-30T15:33:19;4.43;;;1.60;;
17201;SDS011;8717;53.588;10.176;2023-03-30T15:35:48;7.97;;;2.27;;
17201;SDS011;8717;53.588;10.176;2023-03-30T15:38:16;10.13;;;2.17;;
17201;SDS011;8717;53.588;10.176;2023-03-30T15:40:45;5.47;;;1.93;;